Time;durP1;ratioP1;P1;durP2;ratioP2;P2;SDS_P1;SDS_P2;PMS_P1;PMS_P2;Temp;Humidity;BMP_temperature;BMP_pressure;BME280_temperature;BME280_humidity;BME280_pressure;Samples;Min_cycle;Max_cycle;Signal;HPM_P1;HPM_P2
2021/01/17 00:02:29;;;;;;;36.83;19.20;;;;;;;;;;4996390;28;20628;-69
2021/01/17 00:05:33;;;;;;;38.27;19.60;;;;;;;;;;4996677;28;20561;-69
2021/01/17 00:08:37;;;;;;;34.07;18.47;;;;;;;;;;5007082;28;20552;-69
2021/01/17 00:11:48;;;;;;;38.67;18.63;;;;;;;;;;5006576;28;20647;-69
2021/01/17 00:14:52;;;;;;;34.67;18.77;;;;;;;;;;4996445;28;20940;-69
2021/01/17 00:17:56;;;;;;;34.77;18.83;;;;;;;;;;4996139;28;20612;-69
2021/01/17 00:21:00;;;;;;;33.90;18.83;;;;;;;;;;4996433;28;20636;-69
2021/01/17 00:24:05;;;;;;;34.07;18.73;;;;;;;;;;4996054;28;21123;-69
2021/01/17 00:27:11;;;;;;;34.83;19.07;;;;;;;;;;4995253;28;20628;-69
2021/01/17 00:30:17;;;;;;;36.03;19.47;;;;;;;;;;4996483;28;20549;-69
2021/01/17 00:33:21;;;;;;;34.60;18.27;;;;;;;;;;4995929;28;20557;-69
2021/01/17 00:36:26;;;;;;;30.30;17.13;;;;;;;;;;4996054;28;20943;-69
2021/01/17 00:39:30;;;;;;;34.00;17.90;;;;;;;;;;5006195;28;20608;-69
2021/01/17 00:42:34;;;;;;;32.77;17.67;;;;;;;;;;5006088;28;21225;-69
2021/01/17 00:45:38;;;;;;;33.60;18.20;;;;;;;;;;4995589;28;20592;-69
2021/01/17 00:48:42;;;;;;;34.87;18.33;;;;;;;;;;4995226;28;20565;-69
2021/01/17 00:51:46;;;;;;;34.23;18.10;;;;;;;;;;5005807;28;20632;-68
2021/01/17 00:54:53;;;;;;;36.67;19.73;;;;;;;;;;4995104;28;20609;-69
2021/01/17 00:57:59;;;;;;;36.33;19.10;;;;;;;;;;5006027;28;20548;-69
2021/01/17 01:01:05;;;;;;;34.57;18.80;;;;;;;;;;5005768;28;20628;-69
2021/01/17 01:04:15;;;;;;;36.17;18.87;;;;;;;;;;4994922;28;20909;-69
2021/01/17 01:07:19;;;;;;;36.50;19.70;;;;;;;;;;4995112;28;20545;-69
2021/01/17 01:10:25;;;;;;;36.43;19.80;;;;;;;;;;4994264;28;20616;-70
2021/01/17 01:13:29;;;;;;;35.93;19.13;;;;;;;;;;4994986;28;21189;-69
2021/01/17 01:16:34;;;;;;;39.97;20.50;;;;;;;;;;4994856;28;21015;-69
2021/01/17 01:19:38;;;;;;;33.80;17.90;;;;;;;;;;4995122;28;20553;-69
2021/01/17 01:22:42;;;;;;;32.90;19.07;;;;;;;;;;4994808;28;20643;-69
2021/01/17 01:25:47;;;;;;;33.37;18.27;;;;;;;;;;4995090;28;20541;-69
2021/01/17 01:28:53;;;;;;;36.77;19.53;;;;;;;;;;4994659;28;20608;-69
2021/01/17 01:31:58;;;;;;;35.70;18.83;;;;;;;;;;4993807;28;20624;-69
2021/01/17 01:35:02;;;;;;;34.27;18.87;;;;;;;;;;4994602;28;20608;-68
2021/01/17 01:38:08;;;;;;;36.50;19.50;;;;;;;;;;4994903;28;20553;-69
2021/01/17 01:41:13;;;;;;;37.23;19.93;;;;;;;;;;4994647;28;20636;-69
2021/01/17 01:44:17;;;;;;;34.40;18.37;;;;;;;;;;4994849;28;20900;-69
2021/01/17 01:47:28;;;;;;;32.53;18.33;;;;;;;;;;4994489;28;20556;-69
2021/01/17 01:50:32;;;;;;;36.03;18.73;;;;;;;;;;4993897;28;20897;-69
2021/01/17 01:53:37;;;;;;;30.63;17.37;;;;;;;;;;5005249;28;20541;-69
2021/01/17 01:56:41;;;;;;;35.43;18.90;;;;;;;;;;4994453;28;20688;-69
2021/01/17 01:59:46;;;;;;;38.40;19.23;;;;;;;;;;4994591;28;20549;-69
2021/01/17 02:02:50;;;;;;;37.73;17.97;;;;;;;;;;4994545;28;21098;-69
2021/01/17 02:05:54;;;;;;;33.30;18.43;;;;;;;;;;5004672;28;21099;-69
2021/01/17 02:09:20;;;;;;;34.80;18.40;;;;;;;;;;4994685;28;20569;-69
2021/01/17 02:12:34;;;;;;;38.37;19.10;;;;;;;;;;4993904;28;20647;-69
2021/01/17 02:15:40;;;;;;;36.20;20.17;;;;;;;;;;4993969;28;20690;-69
2021/01/17 02:18:47;;;;;;;37.53;18.92;;;;;;;;;;4993476;28;20213;-69
2021/01/17 02:21:58;;;;;;;33.15;17.38;;;;;;;;;;4993887;28;20580;-69
2021/01/17 02:25:07;;;;;;;35.95;17.52;;;;;;;;;;4993970;28;20565;-69
2021/01/17 02:28:15;;;;;;;37.53;19.88;;;;;;;;;;4994156;28;20190;-69
2021/01/17 02:31:20;;;;;;;36.67;19.95;;;;;;;;;;4993937;28;20224;-69
2021/01/17 02:34:26;;;;;;;37.03;19.65;;;;;;;;;;4994106;28;20214;-69
2021/01/17 02:37:55;;;;;;;37.30;18.83;;;;;;;;;;4994346;28;20189;-69
2021/01/17 02:41:29;;;;;;;36.60;19.40;;;;;;;;;;4993657;28;20233;-69
2021/01/17 02:44:34;;;;;;;36.80;18.33;;;;;;;;;;5004294;28;20189;-69
2021/01/17 02:47:38;;;;;;;36.25;19.45;;;;;;;;;;4993638;28;20185;-69
2021/01/17 02:50:42;;;;;;;40.55;20.08;;;;;;;;;;4994405;28;20592;-69
2021/01/17 02:53:54;;;;;;;36.72;19.75;;;;;;;;;;4998058;28;20189;-69
2021/01/17 02:57:09;;;;;;;39.22;19.10;;;;;;;;;;4996710;28;20233;-69
2021/01/17 03:00:17;;;;;;;41.47;19.75;;;;;;;;;;4997563;28;20196;-69
2021/01/17 03:03:29;;;;;;;44.03;21.00;;;;;;;;;;4997025;28;20185;-69
2021/01/17 03:06:34;;;;;;;36.58;18.42;;;;;;;;;;4997508;28;20181;-68
2021/01/17 03:09:41;;;;;;;42.17;20.63;;;;;;;;;;4997501;28;20208;-69
2021/01/17 03:12:47;;;;;;;42.22;20.33;;;;;;;;;;4997230;28;20691;-69
2021/01/17 03:15:51;;;;;;;44.97;21.40;;;;;;;;;;4997655;28;20217;-69
2021/01/17 03:18:55;;;;;;;39.30;20.02;;;;;;;;;;4997281;28;20204;-69
2021/01/17 03:22:00;;;;;;;42.65;20.58;;;;;;;;;;4996419;28;20217;-69
2021/01/17 03:25:05;;;;;;;37.65;18.70;;;;;;;;;;4997297;28;20213;-69
2021/01/17 03:28:09;;;;;;;38.72;20.45;;;;;;;;;;4997373;28;20182;-68
2021/01/17 03:31:14;;;;;;;39.60;20.52;;;;;;;;;;5007599;28;20224;-69
2021/01/17 03:34:18;;;;;;;34.97;19.08;;;;;;;;;;4997272;28;20189;-69
2021/01/17 03:37:22;;;;;;;41.72;20.20;;;;;;;;;;4996846;28;20213;-69
2021/01/17 03:40:26;;;;;;;38.55;19.50;;;;;;;;;;5007229;28;20205;-69
2021/01/17 03:43:30;;;;;;;41.10;21.10;;;;;;;;;;4997087;28;20189;-69
2021/01/17 03:46:34;;;;;;;36.83;19.43;;;;;;;;;;4996773;28;20225;-69
2021/01/17 03:49:38;;;;;;;38.80;21.13;;;;;;;;;;4997014;28;20553;-69
2021/01/17 03:52:42;;;;;;;42.20;21.63;;;;;;;;;;4995786;28;20592;-69
2021/01/17 03:55:46;;;;;;;36.25;20.35;;;;;;;;;;4996893;28;20189;-69
2021/01/17 03:58:50;;;;;;;41.07;20.53;;;;;;;;;;4996803;28;20185;-69
2021/01/17 04:01:55;;;;;;;40.80;20.13;;;;;;;;;;4996476;28;20619;-69
2021/01/17 04:04:59;;;;;;;39.23;20.27;;;;;;;;;;4995640;28;20544;-69
2021/01/17 04:08:03;;;;;;;39.20;19.30;;;;;;;;;;4996329;28;20612;-69
2021/01/17 04:11:07;;;;;;;41.67;20.65;;;;;;;;;;4996010;28;21268;-69
2021/01/17 04:14:11;;;;;;;42.93;21.07;;;;;;;;;;5033279;22;20239;-74
2021/01/17 04:17:16;;;;;;;41.17;21.17;;;;;;;;;;5035568;28;20606;-74
2021/01/17 04:20:20;;;;;;;40.93;20.23;;;;;;;;;;5034779;28;20598;-74
2021/01/17 04:23:24;;;;;;;41.40;20.90;;;;;;;;;;5026736;28;21175;-74
2021/01/17 04:26:28;;;;;;;40.83;22.37;;;;;;;;;;5015867;28;20943;-74
2021/01/17 04:29:33;;;;;;;40.83;20.87;;;;;;;;;;5015277;28;21125;-74
2021/01/17 04:32:40;;;;;;;36.80;20.37;;;;;;;;;;5014817;28;20638;-74
2021/01/17 04:35:46;;;;;;;41.10;20.60;;;;;;;;;;5015557;28;20544;-74
2021/01/17 04:38:50;;;;;;;39.43;21.27;;;;;;;;;;5015691;28;20611;-73
2021/01/17 04:41:57;;;;;;;41.50;20.53;;;;;;;;;;5015340;28;21038;-74
2021/01/17 04:45:06;;;;;;;41.03;21.87;;;;;;;;;;5015671;28;20544;-73
2021/01/17 04:48:10;;;;;;;42.63;20.70;;;;;;;;;;5014766;28;20895;-74
2021/01/17 04:51:16;;;;;;;39.67;20.90;;;;;;;;;;5014381;28;20634;-74
2021/01/17 04:54:20;;;;;;;39.50;21.43;;;;;;;;;;5015362;28;21129;-74
2021/01/17 04:57:43;;;;;;;38.10;21.03;;;;;;;;;;5014576;28;20592;-74
2021/01/17 05:00:58;;;;;;;40.08;20.23;;;;;;;;;;5015246;28;20635;-74
2021/01/17 05:04:36;;;;;;;42.37;22.40;;;;;;;;;;5014552;28;20193;-74
2021/01/17 05:07:48;;;;;;;38.13;20.53;;;;;;;;;;5015604;28;21082;-74
2021/01/17 05:11:06;;;;;;;40.15;22.00;;;;;;;;;;5014176;28;20631;-74
2021/01/17 05:14:13;;;;;;;42.65;21.23;;;;;;;;;;5014295;28;20212;-74
2021/01/17 05:17:21;;;;;;;39.90;21.43;;;;;;;;;;5013940;28;20271;-74
2021/01/17 05:20:25;;;;;;;42.00;21.73;;;;;;;;;;5015277;28;20552;-74
2021/01/17 05:23:34;;;;;;;43.05;21.98;;;;;;;;;;5015022;28;20188;-74
2021/01/17 05:26:59;;;;;;;44.70;22.38;;;;;;;;;;5013950;28;20189;-74
2021/01/17 05:30:07;;;;;;;41.80;21.38;;;;;;;;;;5014940;28;20204;-74
2021/01/17 05:33:15;;;;;;;44.05;21.38;;;;;;;;;;5014882;28;20552;-74
2021/01/17 05:36:19;;;;;;;40.92;21.38;;;;;;;;;;5014389;28;20663;-74
2021/01/17 05:39:23;;;;;;;46.05;24.08;;;;;;;;;;5002577;28;20204;-74
2021/01/17 05:42:43;;;;;;;44.53;22.08;;;;;;;;;;5013477;28;20233;-73
2021/01/17 05:45:47;;;;;;;43.92;22.15;;;;;;;;;;5014645;28;20184;-74
2021/01/17 05:49:11;;;;;;;43.40;21.45;;;;;;;;;;5002499;28;20177;-74
2021/01/17 05:52:18;;;;;;;43.72;22.00;;;;;;;;;;5014387;28;20224;-74
2021/01/17 05:55:42;;;;;;;37.80;20.15;;;;;;;;;;5014431;28;20181;-74
2021/01/17 05:58:46;;;;;;;42.63;21.75;;;;;;;;;;5002510;28;20185;-74
2021/01/17 06:01:50;;;;;;;42.58;21.08;;;;;;;;;;5013125;28;20805;-74
2021/01/17 06:04:59;;;;;;;41.60;21.38;;;;;;;;;;5014216;28;20192;-74
2021/01/17 06:08:04;;;;;;;45.45;21.98;;;;;;;;;;5014113;28;20189;-74
2021/01/17 06:11:11;;;;;;;41.95;21.27;;;;;;;;;;5024352;28;20235;-74
2021/01/17 06:14:24;;;;;;;43.13;21.90;;;;;;;;;;5012945;28;20216;-75
2021/01/17 06:17:32;;;;;;;40.63;20.43;;;;;;;;;;5013629;28;20220;-74
2021/01/17 06:20:37;;;;;;;44.07;22.37;;;;;;;;;;5012840;28;20548;-74
2021/01/17 06:23:41;;;;;;;42.57;22.23;;;;;;;;;;5001822;28;20548;-74
2021/01/17 06:26:53;;;;;;;37.83;20.97;;;;;;;;;;5013013;28;20540;-74
2021/01/17 06:29:58;;;;;;;47.23;23.97;;;;;;;;;;5013242;28;21090;-75
2021/01/17 06:33:03;;;;;;;43.07;21.90;;;;;;;;;;5013865;28;20892;-75
2021/01/17 06:36:13;;;;;;;39.50;21.40;;;;;;;;;;5012686;28;21180;-75
2021/01/17 06:39:25;;;;;;;43.10;22.73;;;;;;;;;;5012867;28;20889;-75
2021/01/17 06:42:29;;;;;;;40.97;22.17;;;;;;;;;;5012733;28;20631;-75
2021/01/17 06:45:38;;;;;;;43.00;22.57;;;;;;;;;;5024124;28;20556;-75
2021/01/17 06:48:42;;;;;;;41.67;22.70;;;;;;;;;;5001348;28;20599;-75
2021/01/17 06:51:47;;;;;;;42.30;22.20;;;;;;;;;;5001143;28;20647;-75
2021/01/17 06:54:52;;;;;;;41.53;22.70;;;;;;;;;;5024022;28;20564;-75
2021/01/17 06:57:57;;;;;;;40.33;21.17;;;;;;;;;;5013443;28;20608;-75
2021/01/17 07:01:05;;;;;;;39.03;20.33;;;;;;;;;;5013220;28;20643;-75
2021/01/17 07:04:12;;;;;;;42.23;21.53;;;;;;;;;;5013185;28;20548;-74
2021/01/17 07:07:40;;;;;;;43.70;21.67;;;;;;;;;;5012865;28;20544;-74
2021/01/17 07:10:48;;;;;;;41.80;21.80;;;;;;;;;;5012477;28;20631;-75
2021/01/17 07:14:04;;;;;;;42.67;23.13;;;;;;;;;;5012335;28;20631;-75
2021/01/17 07:17:09;;;;;;;42.97;23.27;;;;;;;;;;5023678;28;20655;-75
2021/01/17 07:20:14;;;;;;;38.83;22.17;;;;;;;;;;5013681;28;20540;-74
2021/01/17 07:23:19;;;;;;;41.80;22.53;;;;;;;;;;5012586;28;21090;-75
2021/01/17 07:26:34;;;;;;;38.73;21.40;;;;;;;;;;5001028;28;20564;-75
2021/01/17 07:29:42;;;;;;;38.87;22.77;;;;;;;;;;5012256;28;20553;-75
2021/01/17 07:32:55;;;;;;;42.70;21.87;;;;;;;;;;5012728;28;20607;-75
2021/01/17 07:36:02;;;;;;;43.87;21.67;;;;;;;;;;5012249;28;20552;-72
2021/01/17 07:39:06;;;;;;;45.00;23.17;;;;;;;;;;5015853;28;20599;-74
2021/01/17 07:42:10;;;;;;;43.73;21.90;;;;;;;;;;5016341;28;20634;-73
2021/01/17 07:45:18;;;;;;;41.70;22.00;;;;;;;;;;5027133;28;20571;-74
2021/01/17 07:48:23;;;;;;;43.07;22.13;;;;;;;;;;5027094;28;20180;-74
2021/01/17 07:51:27;;;;;;;45.83;23.48;;;;;;;;;;5016350;28;20631;-74
2021/01/17 07:54:34;;;;;;;42.58;21.33;;;;;;;;;;5016167;28;20184;-74
2021/01/17 07:57:45;;;;;;;42.13;21.53;;;;;;;;;;5027018;28;20212;-74
2021/01/17 08:00:48;;;;;;;42.10;23.43;;;;;;;;;;5016430;28;20631;-74
2021/01/17 08:03:53;;;;;;;39.10;21.57;;;;;;;;;;5016310;28;20539;-74
2021/01/17 08:06:58;;;;;;;41.00;22.83;;;;;;;;;;5016378;28;20549;-74
2021/01/17 08:10:03;;;;;;;38.80;21.57;;;;;;;;;;5016032;28;20564;-75
2021/01/17 08:13:17;;;;;;;41.47;21.77;;;;;;;;;;5015265;28;20552;-74
2021/01/17 08:16:23;;;;;;;37.77;20.47;;;;;;;;;;5015950;28;20564;-74
2021/01/17 08:19:34;;;;;;;36.83;19.90;;;;;;;;;;5015224;28;20560;-74
2021/01/17 08:22:40;;;;;;;35.93;20.07;;;;;;;;;;5015570;28;21209;-74
2021/01/17 08:25:51;;;;;;;40.00;21.17;;;;;;;;;;5015901;28;21114;-74
2021/01/17 08:28:58;;;;;;;34.47;20.23;;;;;;;;;;5016081;28;20556;-74
2021/01/17 08:32:28;;;;;;;35.17;20.47;;;;;;;;;;5015386;28;20642;-74
2021/01/17 08:35:33;;;;;;;36.40;21.00;;;;;;;;;;5003959;28;20548;-74
2021/01/17 08:38:37;;;;;;;35.37;22.00;;;;;;;;;;5014907;28;20623;-74
2021/01/17 08:41:44;;;;;;;39.80;21.97;;;;;;;;;;5015474;28;20631;-74
2021/01/17 08:44:48;;;;;;;36.63;20.53;;;;;;;;;;5014759;28;20548;-74
2021/01/17 08:47:57;;;;;;;33.67;20.03;;;;;;;;;;5015259;28;20544;-74
2021/01/17 08:51:13;;;;;;;39.77;20.40;;;;;;;;;;5014447;28;21006;-74
2021/01/17 08:54:22;;;;;;;37.83;21.47;;;;;;;;;;5015518;28;20548;-75
2021/01/17 08:57:41;;;;;;;38.73;21.80;;;;;;;;;;5015467;28;20552;-74
2021/01/17 09:00:47;;;;;;;37.23;20.77;;;;;;;;;;5015157;28;20631;-74
2021/01/17 09:03:55;;;;;;;41.07;23.20;;;;;;;;;;5014914;28;20603;-74
2021/01/17 09:07:00;;;;;;;39.93;22.20;;;;;;;;;;5015055;28;20548;-73
2021/01/17 09:10:04;;;;;;;37.47;22.23;;;;;;;;;;5015104;28;20560;-74
2021/01/17 09:13:18;;;;;;;48.87;22.23;;;;;;;;;;5014958;28;20540;-74
2021/01/17 09:16:22;;;;;;;35.87;20.83;;;;;;;;;;5014925;28;20556;-73
2021/01/17 09:19:32;;;;;;;73.83;34.47;;;;;;;;;;5002312;28;21169;-74
2021/01/17 09:22:36;;;;;;;95.57;37.40;;;;;;;;;;5013612;28;20631;-73
2021/01/17 09:25:40;;;;;;;47.57;25.20;;;;;;;;;;5014693;28;20767;-73
2021/01/17 09:28:44;;;;;;;41.60;21.87;;;;;;;;;;5002608;28;20556;-74
2021/01/17 09:31:54;;;;;;;33.93;19.83;;;;;;;;;;5014174;28;20627;-74
2021/01/17 09:35:04;;;;;;;36.57;21.50;;;;;;;;;;5013483;28;20603;-74
2021/01/17 09:38:13;;;;;;;38.67;21.47;;;;;;;;;;5014505;28;20640;-74
2021/01/17 09:41:22;;;;;;;36.87;20.67;;;;;;;;;;5013484;28;20631;-74
2021/01/17 09:44:26;;;;;;;37.13;21.37;;;;;;;;;;5014113;28;21155;-74
2021/01/17 09:47:32;;;;;;;37.27;20.87;;;;;;;;;;5014106;28;20561;-74
2021/01/17 09:50:37;;;;;;;36.60;20.60;;;;;;;;;;5014291;28;20545;-73
2021/01/17 09:53:44;;;;;;;34.63;20.57;;;;;;;;;;5014448;28;20536;-73
2021/01/17 09:56:48;;;;;;;40.23;21.83;;;;;;;;;;5014226;28;20545;-73
2021/01/17 09:59:55;;;;;;;35.13;20.47;;;;;;;;;;4976994;28;21226;-81
2021/01/17 10:03:07;;;;;;;36.27;21.37;;;;;;;;;;4993745;28;20553;-81
2021/01/17 10:06:13;;;;;;;100.93;36.60;;;;;;;;;;4994684;28;20546;-82
2021/01/17 10:09:19;;;;;;;32.73;19.20;;;;;;;;;;5006119;28;20600;-80
2021/01/17 10:12:24;;;;;;;32.37;19.37;;;;;;;;;;4963488;28;20555;-80
2021/01/17 10:15:28;;;;;;;35.47;20.13;;;;;;;;;;4974799;28;20614;-80
2021/01/17 10:18:32;;;;;;;35.77;21.30;;;;;;;;;;4952323;28;21015;-81
2021/01/17 10:21:39;;;;;;;33.50;20.57;;;;;;;;;;4963365;28;20558;-82
2021/01/17 10:24:44;;;;;;;36.17;21.10;;;;;;;;;;4973999;28;20648;-81
2021/01/17 10:27:48;;;;;;;35.87;20.53;;;;;;;;;;4974474;28;20598;-81
2021/01/17 10:31:01;;;;;;;39.87;24.40;;;;;;;;;;4995554;28;20988;-80
2021/01/17 10:34:05;;;;;;;35.90;21.93;;;;;;;;;;4971444;28;20629;-81
2021/01/17 10:37:12;;;;;;;35.03;20.47;;;;;;;;;;4983043;28;20553;-82
2021/01/17 10:40:24;;;;;;;34.87;21.90;;;;;;;;;;4982657;28;20914;-81
2021/01/17 10:43:31;;;;;;;35.43;20.03;;;;;;;;;;5004795;28;20636;-81
2021/01/17 10:46:37;;;;;;;35.67;20.77;;;;;;;;;;5004573;28;20562;-81
2021/01/17 10:49:43;;;;;;;35.20;21.00;;;;;;;;;;4971057;28;20972;-81
2021/01/17 10:53:08;;;;;;;35.73;20.83;;;;;;;;;;4963212;28;20602;-81
2021/01/17 10:56:16;;;;;;;34.03;20.53;;;;;;;;;;4964516;28;20590;-81
2021/01/17 10:59:27;;;;;;;34.80;20.90;;;;;;;;;;4983168;28;20660;-81
2021/01/17 11:02:31;;;;;;;40.67;22.17;;;;;;;;;;5058400;22;21060;-73
2021/01/17 11:05:35;;;;;;;49.03;26.07;;;;;;;;;;5027004;28;20626;-73
2021/01/17 11:08:46;;;;;;;55.30;28.30;;;;;;;;;;5028243;28;21251;-73
2021/01/17 11:11:50;;;;;;;42.10;22.87;;;;;;;;;;4994449;28;20543;-73
2021/01/17 11:14:55;;;;;;;34.90;20.30;;;;;;;;;;5008935;28;20591;-73
2021/01/17 11:17:59;;;;;;;34.80;21.00;;;;;;;;;;5014772;28;20592;-72
2021/01/17 11:21:05;;;;;;;43.77;25.53;;;;;;;;;;5016258;28;20544;-72
2021/01/17 11:24:10;;;;;;;42.00;24.10;;;;;;;;;;5000633;28;20913;-73
2021/01/17 11:27:16;;;;;;;37.10;21.37;;;;;;;;;;4997308;28;20590;-73
2021/01/17 11:30:25;;;;;;;38.63;22.30;;;;;;;;;;4996979;28;20621;-73
2021/01/17 11:33:29;;;;;;;39.97;23.43;;;;;;;;;;5004407;28;20592;-73
2021/01/17 11:36:34;;;;;;;38.40;22.43;;;;;;;;;;5016092;28;20592;-73
2021/01/17 11:39:38;;;;;;;38.47;22.27;;;;;;;;;;5016004;28;20659;-73
2021/01/17 11:42:42;;;;;;;34.87;21.27;;;;;;;;;;5015298;28;20544;-73
2021/01/17 11:45:46;;;;;;;36.47;22.17;;;;;;;;;;5001899;28;20580;-73
2021/01/17 11:48:55;;;;;;;33.73;20.77;;;;;;;;;;5000850;28;21247;-73
2021/01/17 11:52:12;;;;;;;38.77;22.60;;;;;;;;;;5016327;28;20588;-73
2021/01/17 11:55:19;;;;;;;44.63;25.40;;;;;;;;;;5015281;28;20960;-71
2021/01/17 11:58:27;;;;;;;50.37;29.43;;;;;;;;;;5007735;28;20593;-72
2021/01/17 12:01:31;;;;;;;48.77;27.37;;;;;;;;;;4996097;28;20609;-72
2021/01/17 12:04:39;;;;;;;43.47;26.60;;;;;;;;;;5002225;28;20585;-73
2021/01/17 12:07:56;;;;;;;38.87;23.73;;;;;;;;;;5014508;28;20553;-72
2021/01/17 12:11:01;;;;;;;43.27;23.57;;;;;;;;;;5012709;28;20596;-72
2021/01/17 12:14:06;;;;;;;43.70;23.43;;;;;;;;;;4997987;28;20581;-72
2021/01/17 12:17:11;;;;;;;41.07;23.43;;;;;;;;;;5006124;28;20581;-72
2021/01/17 12:20:15;;;;;;;50.87;23.63;;;;;;;;;;5014450;28;20664;-73
2021/01/17 12:23:19;;;;;;;39.57;22.53;;;;;;;;;;5011991;28;20629;-73
2021/01/17 12:26:24;;;;;;;46.30;25.57;;;;;;;;;;5005975;28;20597;-72
2021/01/17 12:29:29;;;;;;;39.80;23.90;;;;;;;;;;4995314;28;20674;-72
2021/01/17 12:32:33;;;;;;;45.37;24.90;;;;;;;;;;4994133;28;20593;-73
2021/01/17 12:35:38;;;;;;;42.60;24.50;;;;;;;;;;5004570;28;20589;-72
2021/01/17 12:38:44;;;;;;;41.33;25.33;;;;;;;;;;5004576;28;20659;-72
2021/01/17 12:41:51;;;;;;;46.90;26.37;;;;;;;;;;4997690;28;20577;-72
2021/01/17 12:44:56;;;;;;;46.80;27.77;;;;;;;;;;4998198;28;20585;-72
2021/01/17 12:47:59;;;;;;;47.43;28.50;;;;;;;;;;4997162;28;20581;-71
2021/01/17 12:51:05;;;;;;;43.97;25.40;;;;;;;;;;5010114;28;20581;-72
2021/01/17 12:54:10;;;;;;;55.13;28.40;;;;;;;;;;5006650;28;21169;-72
2021/01/17 12:57:14;;;;;;;44.00;25.90;;;;;;;;;;4998350;28;20620;-73
2021/01/17 13:00:19;;;;;;;53.00;26.30;;;;;;;;;;5006984;28;21237;-72
2021/01/17 13:03:23;;;;;;;44.97;24.40;;;;;;;;;;5014094;28;20947;-72
2021/01/17 13:06:27;;;;;;;41.27;22.73;;;;;;;;;;5014749;28;20592;-72
2021/01/17 13:09:32;;;;;;;45.50;23.33;;;;;;;;;;5013880;28;20619;-71
2021/01/17 13:12:36;;;;;;;42.03;23.10;;;;;;;;;;5011595;28;20573;-71
2021/01/17 13:16:02;;;;;;;42.03;24.43;;;;;;;;;;5014399;28;20994;-72
2021/01/17 13:19:07;;;;;;;46.17;24.97;;;;;;;;;;5014637;28;21015;-72
2021/01/17 13:22:11;;;;;;;42.27;24.37;;;;;;;;;;5011197;28;20571;-75
2021/01/17 13:25:19;;;;;;;40.60;23.67;;;;;;;;;;4984949;28;20597;-75
2021/01/17 13:28:24;;;;;;;42.97;24.20;;;;;;;;;;5013314;28;21131;-76
2021/01/17 13:31:28;;;;;;;42.17;23.87;;;;;;;;;;5014436;28;20921;-75
2021/01/17 13:34:33;;;;;;;41.13;24.57;;;;;;;;;;4982890;28;20532;-76
2021/01/17 13:37:37;;;;;;;48.53;25.20;;;;;;;;;;4999131;28;20596;-76
2021/01/17 13:40:42;;;;;;;43.50;24.57;;;;;;;;;;5002056;28;20596;-77
2021/01/17 13:43:46;;;;;;;42.33;24.07;;;;;;;;;;4995249;28;20956;-76
2021/01/17 13:46:52;;;;;;;44.43;24.27;;;;;;;;;;4993966;28;20608;-76
2021/01/17 13:50:00;;;;;;;44.63;23.93;;;;;;;;;;4993653;28;20628;-76
2021/01/17 13:53:05;;;;;;;45.47;25.10;;;;;;;;;;5005376;28;20627;-76
2021/01/17 13:56:09;;;;;;;46.23;23.30;;;;;;;;;;5003883;28;20952;-76
2021/01/17 13:59:13;;;;;;;45.90;23.73;;;;;;;;;;4982695;28;20652;-76
2021/01/17 14:02:17;;;;;;;43.30;23.87;;;;;;;;;;4993827;28;20655;-76
2021/01/17 14:05:21;;;;;;;41.60;23.50;;;;;;;;;;4993847;28;20549;-76
2021/01/17 14:08:25;;;;;;;46.53;25.17;;;;;;;;;;4994594;28;21205;-75
2021/01/17 14:11:29;;;;;;;44.40;23.67;;;;;;;;;;4993569;28;20557;-75
2021/01/17 14:14:35;;;;;;;49.13;25.07;;;;;;;;;;4993455;28;20557;-76
2021/01/17 14:17:41;;;;;;;43.67;23.67;;;;;;;;;;5004680;28;21390;-75
2021/01/17 14:20:45;;;;;;;47.03;25.10;;;;;;;;;;4982227;28;20969;-76
2021/01/17 14:23:49;;;;;;;44.03;23.27;;;;;;;;;;4999127;28;20603;-75
2021/01/17 14:26:54;;;;;;;52.77;26.83;;;;;;;;;;5013800;28;20548;-77
2021/01/17 14:29:58;;;;;;;45.00;24.83;;;;;;;;;;5013199;28;20623;-77
2021/01/17 14:33:02;;;;;;;44.40;23.97;;;;;;;;;;4987387;28;20600;-77
2021/01/17 14:36:06;;;;;;;40.90;23.10;;;;;;;;;;4993773;28;20971;-76
2021/01/17 14:39:16;;;;;;;48.97;24.00;;;;;;;;;;4994003;28;20627;-76
2021/01/17 14:42:21;;;;;;;43.53;22.87;;;;;;;;;;4993933;28;20605;-76
2021/01/17 14:45:25;;;;;;;48.20;25.00;;;;;;;;;;4993897;28;21098;-76
2021/01/17 14:48:29;;;;;;;47.20;24.83;;;;;;;;;;4995526;28;20689;-77
2021/01/17 14:51:34;;;;;;;48.60;25.50;;;;;;;;;;5013101;28;20595;-77
2021/01/17 14:54:38;;;;;;;48.07;24.87;;;;;;;;;;5006785;28;20597;-76
2021/01/17 14:57:49;;;;;;;43.67;24.97;;;;;;;;;;5003827;28;20619;-77
2021/01/17 15:00:54;;;;;;;45.73;23.63;;;;;;;;;;5000672;28;20643;-77
2021/01/17 15:03:58;;;;;;;46.17;24.43;;;;;;;;;;5013159;28;20591;-76
2021/01/17 15:07:03;;;;;;;42.90;23.40;;;;;;;;;;5013315;28;20548;-76
2021/01/17 15:10:07;;;;;;;42.90;23.53;;;;;;;;;;4999584;28;20651;-76
2021/01/17 15:13:11;;;;;;;47.00;24.53;;;;;;;;;;4993773;28;20552;-77
2021/01/17 15:16:17;;;;;;;45.70;25.50;;;;;;;;;;4992634;28;20956;-76
2021/01/17 15:19:20;;;;;;;47.13;24.63;;;;;;;;;;5003552;28;20654;-75
2021/01/17 15:22:25;;;;;;;46.30;24.80;;;;;;;;;;5014183;28;20552;-78
2021/01/17 15:25:29;;;;;;;49.67;25.53;;;;;;;;;;5003199;28;20927;-79
2021/01/17 15:28:34;;;;;;;45.20;24.73;;;;;;;;;;5013621;28;20679;-78
2021/01/17 15:31:40;;;;;;;48.57;26.03;;;;;;;;;;5005463;28;20549;-78
2021/01/17 15:34:44;;;;;;;57.77;29.67;;;;;;;;;;5003446;28;20604;-78
2021/01/17 15:37:48;;;;;;;50.83;25.47;;;;;;;;;;5014183;28;20552;-78
2021/01/17 15:40:52;;;;;;;45.23;24.07;;;;;;;;;;5013533;28;21228;-79
2021/01/17 15:43:57;;;;;;;46.23;22.77;;;;;;;;;;4993411;28;20611;-79
2021/01/17 15:47:02;;;;;;;52.87;23.97;;;;;;;;;;5015679;28;20564;-78
2021/01/17 15:50:06;;;;;;;44.77;24.33;;;;;;;;;;5013242;28;20659;-77
2021/01/17 15:53:10;;;;;;;44.10;23.80;;;;;;;;;;5001779;28;20931;-78
2021/01/17 15:56:14;;;;;;;45.17;24.27;;;;;;;;;;4983879;28;20549;-78
2021/01/17 15:59:18;;;;;;;45.43;22.90;;;;;;;;;;5008938;28;20647;-78
2021/01/17 16:02:23;;;;;;;43.37;23.80;;;;;;;;;;4985995;28;20608;-77
2021/01/17 16:05:27;;;;;;;45.73;23.50;;;;;;;;;;4989890;28;20604;-77
2021/01/17 16:08:31;;;;;;;45.43;25.00;;;;;;;;;;5011585;28;21254;-78
2021/01/17 16:11:36;;;;;;;46.07;25.07;;;;;;;;;;4995570;28;20555;-77
2021/01/17 16:14:40;;;;;;;41.00;23.30;;;;;;;;;;5017583;28;20532;-77
2021/01/17 16:17:45;;;;;;;37.67;20.53;;;;;;;;;;5014853;28;20595;-78
2021/01/17 16:20:49;;;;;;;38.77;21.50;;;;;;;;;;4991878;28;20667;-77
2021/01/17 16:23:53;;;;;;;36.87;19.37;;;;;;;;;;5015614;28;20612;-77
2021/01/17 16:27:00;;;;;;;38.93;20.17;;;;;;;;;;4989548;28;20600;-77
2021/01/17 16:30:08;;;;;;;34.70;19.73;;;;;;;;;;5007667;28;20655;-77
2021/01/17 16:33:12;;;;;;;36.47;20.47;;;;;;;;;;4984582;28;20549;-78
2021/01/17 16:36:20;;;;;;;41.77;22.87;;;;;;;;;;5007065;28;20603;-78
2021/01/17 16:39:24;;;;;;;42.73;22.23;;;;;;;;;;5009484;28;20652;-77
2021/01/17 16:42:28;;;;;;;42.33;22.10;;;;;;;;;;4985655;28;20537;-77
2021/01/17 16:45:32;;;;;;;48.60;23.43;;;;;;;;;;4973416;28;20549;-77
2021/01/17 16:48:36;;;;;;;40.27;21.90;;;;;;;;;;4996233;28;21020;-78
2021/01/17 16:51:40;;;;;;;48.50;23.93;;;;;;;;;;5006583;28;20599;-78
2021/01/17 16:54:44;;;;;;;45.53;22.73;;;;;;;;;;4986724;28;20565;-78
2021/01/17 16:57:51;;;;;;;41.47;22.97;;;;;;;;;;5000962;28;20557;-77
2021/01/17 17:00:56;;;;;;;37.90;21.43;;;;;;;;;;5007689;28;20782;-78
2021/01/17 17:04:00;;;;;;;54.00;25.33;;;;;;;;;;5018063;28;20615;-77
2021/01/17 17:07:05;;;;;;;48.97;25.77;;;;;;;;;;5015768;28;20954;-77
2021/01/17 17:10:11;;;;;;;49.83;25.50;;;;;;;;;;5014158;28;21284;-77
2021/01/17 17:13:15;;;;;;;45.87;23.17;;;;;;;;;;5014424;28;20600;-77
2021/01/17 17:16:25;;;;;;;44.30;23.23;;;;;;;;;;5017111;28;21091;-78
2021/01/17 17:19:31;;;;;;;40.67;21.07;;;;;;;;;;5011657;28;20647;-77
2021/01/17 17:22:35;;;;;;;38.70;20.33;;;;;;;;;;4998167;28;20604;-77
2021/01/17 17:25:39;;;;;;;39.73;20.03;;;;;;;;;;4984936;28;20561;-77
2021/01/17 17:28:43;;;;;;;39.53;20.27;;;;;;;;;;4995005;28;21202;-77
2021/01/17 17:31:54;;;;;;;39.87;19.80;;;;;;;;;;4995444;28;20560;-77
2021/01/17 17:34:58;;;;;;;47.80;23.87;;;;;;;;;;4986594;28;20604;-78
2021/01/17 17:38:03;;;;;;;44.30;22.50;;;;;;;;;;4998108;28;20548;-77
2021/01/17 17:41:10;;;;;;;39.83;21.30;;;;;;;;;;4975450;28;20960;-77
2021/01/17 17:44:15;;;;;;;41.90;21.90;;;;;;;;;;5005233;28;20599;-77
2021/01/17 17:47:19;;;;;;;40.07;20.73;;;;;;;;;;5013878;28;20575;-77
2021/01/17 17:50:23;;;;;;;40.30;21.23;;;;;;;;;;5004426;28;21007;-77
2021/01/17 17:53:27;;;;;;;47.30;22.13;;;;;;;;;;5016565;28;20560;-78
2021/01/17 17:56:32;;;;;;;47.67;22.97;;;;;;;;;;5006093;28;20616;-77
2021/01/17 17:59:37;;;;;;;43.30;22.83;;;;;;;;;;5012649;28;20651;-78
2021/01/17 18:02:42;;;;;;;45.37;23.97;;;;;;;;;;5001975;28;20645;-77
2021/01/17 18:05:46;;;;;;;56.20;29.37;;;;;;;;;;4998742;28;20585;-76